sensor_id;sensor_type;location;lat;lon;timestamp;P1;durP1;ratioP1;P2;durP2;ratioP2
47455;SDS011;33202;48.512;-2.780;2023-06-01T00:02:04;25.52;;;10.07;;
47455;SDS011;33202;48.512;-2.780;2023-06-01T00:04:30;26.48;;;10.55;;
47455;SDS011;33202;48.512;-2.780;2023-06-01T00:06:56;25.95;;;9.88;;
47455;SDS011;33202;48.512;-2.780;2023-06-01T00:09:22;28.27;;;10.05;;
47455;SDS011;33202;48.512;-2.780;2023-06-01T00:11:48;27.85;;;9.13;;
47455;SDS011;33202;48.512;-2.780;2023-06-01T00:14:14;29.33;;;10.50;;
47455;SDS011;33202;48.512;-2.780;2023-06-01T00:16:40;27.67;;;10.73;;
47455;SDS011;33202;48.512;-2.780;2023-06-01T00:19:06;30.02;;;11.20;;
47455;SDS011;33202;48.512;-2.780;2023-06-01T00:21:32;31.60;;;11.27;;
47455;SDS011;33202;48.512;-2.780;2023-06-01T00:24:00;32.15;;;12.50;;
47455;SDS011;33202;48.512;-2.780;2023-06-01T00:26:26;30.13;;;11.35;;
47455;SDS011;33202;48.512;-2.780;2023-06-01T00:28:52;36.28;;;11.38;;
47455;SDS011;33202;48.512;-2.780;2023-06-01T00:31:18;25.10;;;10.73;;
47455;SDS011;33202;48.512;-2.780;2023-06-01T00:33:44;26.88;;;11.30;;
47455;SDS011;33202;48.512;-2.780;2023-06-01T00:36:10;27.38;;;11.80;;
47455;SDS011;33202;48.512;-2.780;2023-06-01T00:38:36;29.88;;;12.48;;
47455;SDS011;33202;48.512;-2.780;2023-06-01T00:41:02;30.77;;;11.18;;
47455;SDS011;33202;48.512;-2.780;2023-06-01T00:43:28;34.83;;;14.13;;
47455;SDS011;33202;48.512;-2.780;2023-06-01T00:45:54;34.53;;;12.77;;
47455;SDS011;33202;48.512;-2.780;2023-06-01T00:48:20;32.70;;;13.00;;
47455;SDS011;33202;48.512;-2.780;2023-06-01T00:50:48;33.10;;;13.05;;
47455;SDS011;33202;48.512;-2.780;2023-06-01T00:53:16;33.25;;;12.15;;
47455;SDS011;33202;48.512;-2.780;2023-06-01T00:55:43;33.05;;;14.18;;
47455;SDS011;33202;48.512;-2.780;2023-06-01T00:58:09;32.88;;;13.38;;
47455;SDS011;33202;48.512;-2.780;2023-06-01T01:00:35;41.33;;;14.25;;
47455;SDS011;33202;48.512;-2.780;2023-06-01T01:03:02;38.90;;;14.18;;
47455;SDS011;33202;48.512;-2.780;2023-06-01T01:05:32;31.23;;;13.70;;
47455;SDS011;33202;48.512;-2.780;2023-06-01T01:13:19;34.78;;;14.75;;
47455;SDS011;33202;48.512;-2.780;2023-06-01T01:18:15;35.42;;;16.10;;
47455;SDS011;33202;48.512;-2.780;2023-06-01T01:20:48;33.80;;;16.27;;
47455;SDS011;33202;48.512;-2.780;2023-06-01T01:30:54;45.03;;;16.35;;
47455;SDS011;33202;48.512;-2.780;2023-06-01T01:33:21;49.78;;;18.65;;
47455;SDS011;33202;48.512;-2.780;2023-06-01T01:35:51;36.88;;;16.63;;
47455;SDS011;33202;48.512;-2.780;2023-06-01T01:38:17;39.25;;;17.45;;
47455;SDS011;33202;48.512;-2.780;2023-06-01T01:40:43;35.80;;;17.08;;
47455;SDS011;33202;48.512;-2.780;2023-06-01T01:43:09;41.58;;;18.38;;
47455;SDS011;33202;48.512;-2.780;2023-06-01T01:45:36;36.45;;;17.17;;
47455;SDS011;33202;48.512;-2.780;2023-06-01T01:48:10;37.20;;;17.43;;
47455;SDS011;33202;48.512;-2.780;2023-06-01T01:50:37;39.15;;;17.70;;
47455;SDS011;33202;48.512;-2.780;2023-06-01T01:53:07;39.63;;;17.25;;
47455;SDS011;33202;48.512;-2.780;2023-06-01T01:55:35;33.85;;;16.15;;
47455;SDS011;33202;48.512;-2.780;2023-06-01T01:58:01;35.13;;;14.93;;
47455;SDS011;33202;48.512;-2.780;2023-06-01T02:00:29;30.23;;;15.13;;
47455;SDS011;33202;48.512;-2.780;2023-06-01T02:02:56;32.08;;;15.52;;
47455;SDS011;33202;48.512;-2.780;2023-06-01T02:05:22;28.02;;;16.40;;
47455;SDS011;33202;48.512;-2.780;2023-06-01T02:07:48;37.47;;;15.20;;
47455;SDS011;33202;48.512;-2.780;2023-06-01T02:10:15;32.78;;;16.08;;
47455;SDS011;33202;48.512;-2.780;2023-06-01T02:12:41;34.63;;;15.23;;
47455;SDS011;33202;48.512;-2.780;2023-06-01T02:15:07;34.13;;;14.90;;
47455;SDS011;33202;48.512;-2.780;2023-06-01T02:17:33;41.47;;;16.67;;
47455;SDS011;33202;48.512;-2.780;2023-06-01T02:19:59;37.47;;;16.35;;
47455;SDS011;33202;48.512;-2.780;2023-06-01T02:22:25;35.20;;;15.60;;
47455;SDS011;33202;48.512;-2.780;2023-06-01T02:24:51;37.78;;;14.90;;
47455;SDS011;33202;48.512;-2.780;2023-06-01T02:27:17;37.35;;;15.38;;
47455;SDS011;33202;48.512;-2.780;2023-06-01T02:29:43;32.17;;;14.35;;
47455;SDS011;33202;48.512;-2.780;2023-06-01T02:32:09;33.40;;;14.20;;
47455;SDS011;33202;48.512;-2.780;2023-06-01T02:34:36;32.30;;;14.75;;
47455;SDS011;33202;48.512;-2.780;2023-06-01T02:37:02;34.65;;;14.90;;
47455;SDS011;33202;48.512;-2.780;2023-06-01T02:39:29;31.17;;;15.07;;
47455;SDS011;33202;48.512;-2.780;2023-06-01T02:41:55;34.15;;;16.42;;
47455;SDS011;33202;48.512;-2.780;2023-06-01T02:44:21;38.47;;;15.60;;
47455;SDS011;33202;48.512;-2.780;2023-06-01T02:46:47;38.22;;;15.00;;
47455;SDS011;33202;48.512;-2.780;2023-06-01T02:49:13;28.17;;;13.82;;
47455;SDS011;33202;48.512;-2.780;2023-06-01T02:51:39;33.65;;;15.70;;
47455;SDS011;33202;48.512;-2.780;2023-06-01T02:54:06;35.13;;;16.20;;
47455;SDS011;33202;48.512;-2.780;2023-06-01T02:56:32;39.80;;;17.13;;
47455;SDS011;33202;48.512;-2.780;2023-06-01T02:58:58;41.95;;;17.40;;
47455;SDS011;33202;48.512;-2.780;2023-06-01T03:01:24;33.10;;;16.95;;
47455;SDS011;33202;48.512;-2.780;2023-06-01T03:03:51;34.03;;;16.13;;
47455;SDS011;33202;48.512;-2.780;2023-06-01T03:06:17;35.03;;;17.15;;
47455;SDS011;33202;48.512;-2.780;2023-06-01T03:08:46;38.25;;;17.98;;
47455;SDS011;33202;48.512;-2.780;2023-06-01T03:11:12;36.10;;;17.58;;
47455;SDS011;33202;48.512;-2.780;2023-06-01T03:13:38;35.72;;;16.67;;
47455;SDS011;33202;48.512;-2.780;2023-06-01T03:16:04;32.58;;;16.50;;
47455;SDS011;33202;48.512;-2.780;2023-06-01T03:18:30;38.35;;;17.55;;
47455;SDS011;33202;48.512;-2.780;2023-06-01T03:20:56;35.20;;;15.65;;
47455;SDS011;33202;48.512;-2.780;2023-06-01T03:23:22;31.10;;;15.55;;
47455;SDS011;33202;48.512;-2.780;2023-06-01T03:25:48;31.75;;;15.25;;
47455;SDS011;33202;48.512;-2.780;2023-06-01T03:28:15;32.92;;;16.27;;
47455;SDS011;33202;48.512;-2.780;2023-06-01T03:30:41;38.40;;;17.00;;
47455;SDS011;33202;48.512;-2.780;2023-06-01T03:33:07;32.95;;;17.00;;
47455;SDS011;33202;48.512;-2.780;2023-06-01T03:35:33;28.60;;;15.73;;
47455;SDS011;33202;48.512;-2.780;2023-06-01T03:37:59;33.43;;;16.53;;
47455;SDS011;33202;48.512;-2.780;2023-06-01T03:40:25;33.75;;;17.42;;
47455;SDS011;33202;48.512;-2.780;2023-06-01T03:42:51;33.38;;;16.42;;
47455;SDS011;33202;48.512;-2.780;2023-06-01T03:45:17;36.40;;;16.40;;
47455;SDS011;33202;48.512;-2.780;2023-06-01T03:47:44;34.83;;;16.77;;
47455;SDS011;33202;48.512;-2.780;2023-06-01T03:50:10;42.58;;;17.55;;
47455;SDS011;33202;48.512;-2.780;2023-06-01T03:52:36;36.25;;;18.05;;
47455;SDS011;33202;48.512;-2.780;2023-06-01T03:55:03;35.17;;;17.37;;
47455;SDS011;33202;48.512;-2.780;2023-06-01T03:57:33;36.72;;;17.98;;
47455;SDS011;33202;48.512;-2.780;2023-06-01T03:59:59;35.37;;;16.70;;
47455;SDS011;33202;48.512;-2.780;2023-06-01T04:02:26;30.98;;;16.13;;
47455;SDS011;33202;48.512;-2.780;2023-06-01T04:04:53;44.45;;;18.40;;
47455;SDS011;33202;48.512;-2.780;2023-06-01T04:07:20;29.57;;;17.03;;
47455;SDS011;33202;48.512;-2.780;2023-06-01T04:09:47;41.80;;;18.48;;
47455;SDS011;33202;48.512;-2.780;2023-06-01T04:12:13;42.77;;;19.63;;
47455;SDS011;33202;48.512;-2.780;2023-06-01T04:14:40;41.45;;;20.73;;
47455;SDS011;33202;48.512;-2.780;2023-06-01T04:17:06;40.47;;;19.25;;
47455;SDS011;33202;48.512;-2.780;2023-06-01T04:19:32;37.25;;;18.77;;
47455;SDS011;33202;48.512;-2.780;2023-06-01T04:21:58;46.00;;;19.27;;
47455;SDS011;33202;48.512;-2.780;2023-06-01T04:24:24;37.05;;;18.65;;
47455;SDS011;33202;48.512;-2.780;2023-06-01T04:26:50;35.28;;;18.33;;
47455;SDS011;33202;48.512;-2.780;2023-06-01T04:29:17;34.17;;;18.10;;
47455;SDS011;33202;48.512;-2.780;2023-06-01T04:31:45;41.10;;;18.83;;
47455;SDS011;33202;48.512;-2.780;2023-06-01T04:34:11;40.15;;;19.75;;
47455;SDS011;33202;48.512;-2.780;2023-06-01T04:36:37;38.85;;;18.58;;
47455;SDS011;33202;48.512;-2.780;2023-06-01T04:39:04;43.53;;;19.98;;
47455;SDS011;33202;48.512;-2.780;2023-06-01T04:43:57;40.97;;;18.90;;
47455;SDS011;33202;48.512;-2.780;2023-06-01T04:46:23;35.50;;;17.95;;
47455;SDS011;33202;48.512;-2.780;2023-06-01T04:48:54;38.70;;;17.77;;
47455;SDS011;33202;48.512;-2.780;2023-06-01T04:51:22;39.78;;;19.08;;
47455;SDS011;33202;48.512;-2.780;2023-06-01T04:53:49;31.98;;;17.35;;
47455;SDS011;33202;48.512;-2.780;2023-06-01T04:56:16;43.88;;;19.40;;
47455;SDS011;33202;48.512;-2.780;2023-06-01T04:58:43;36.67;;;18.65;;
47455;SDS011;33202;48.512;-2.780;2023-06-01T05:01:09;31.00;;;17.27;;
47455;SDS011;33202;48.512;-2.780;2023-06-01T05:03:40;44.95;;;18.75;;
47455;SDS011;33202;48.512;-2.780;2023-06-01T05:06:06;38.05;;;17.67;;
47455;SDS011;33202;48.512;-2.780;2023-06-01T05:08:32;34.25;;;17.17;;
47455;SDS011;33202;48.512;-2.780;2023-06-01T05:10:58;42.38;;;18.48;;
47455;SDS011;33202;48.512;-2.780;2023-06-01T05:13:24;38.10;;;17.83;;
47455;SDS011;33202;48.512;-2.780;2023-06-01T05:15:50;34.63;;;17.55;;
47455;SDS011;33202;48.512;-2.780;2023-06-01T05:18:16;35.28;;;16.45;;
47455;SDS011;33202;48.512;-2.780;2023-06-01T05:20:42;33.80;;;16.73;;
47455;SDS011;33202;48.512;-2.780;2023-06-01T05:23:08;35.28;;;15.18;;
47455;SDS011;33202;48.512;-2.780;2023-06-01T05:25:34;35.28;;;16.90;;
47455;SDS011;33202;48.512;-2.780;2023-06-01T05:28:00;31.52;;;15.95;;
47455;SDS011;33202;48.512;-2.780;2023-06-01T05:30:26;31.77;;;16.02;;
47455;SDS011;33202;48.512;-2.780;2023-06-01T05:32:52;34.92;;;16.48;;
47455;SDS011;33202;48.512;-2.780;2023-06-01T05:35:18;28.88;;;15.07;;
47455;SDS011;33202;48.512;-2.780;2023-06-01T05:37:45;28.85;;;15.65;;
47455;SDS011;33202;48.512;-2.780;2023-06-01T05:40:11;35.83;;;16.50;;
47455;SDS011;33202;48.512;-2.780;2023-06-01T05:42:37;37.38;;;16.52;;
47455;SDS011;33202;48.512;-2.780;2023-06-01T05:45:03;34.72;;;15.68;;
47455;SDS011;33202;48.512;-2.780;2023-06-01T05:47:30;33.00;;;17.30;;
47455;SDS011;33202;48.512;-2.780;2023-06-01T05:49:56;37.50;;;15.52;;
47455;SDS011;33202;48.512;-2.780;2023-06-01T05:52:22;38.13;;;17.00;;
47455;SDS011;33202;48.512;-2.780;2023-06-01T05:54:48;29.97;;;15.77;;
47455;SDS011;33202;48.512;-2.780;2023-06-01T05:57:15;34.95;;;15.20;;
47455;SDS011;33202;48.512;-2.780;2023-06-01T05:59:41;30.77;;;15.40;;
47455;SDS011;33202;48.512;-2.780;2023-06-01T06:02:07;35.80;;;16.35;;
47455;SDS011;33202;48.512;-2.780;2023-06-01T06:04:33;33.67;;;17.48;;
47455;SDS011;33202;48.512;-2.780;2023-06-01T06:06:59;35.60;;;16.77;;
47455;SDS011;33202;48.512;-2.780;2023-06-01T06:09:25;31.75;;;15.40;;
47455;SDS011;33202;48.512;-2.780;2023-06-01T06:11:51;34.38;;;16.85;;
47455;SDS011;33202;48.512;-2.780;2023-06-01T06:14:17;35.97;;;15.75;;
47455;SDS011;33202;48.512;-2.780;2023-06-01T06:16:43;33.38;;;17.15;;
47455;SDS011;33202;48.512;-2.780;2023-06-01T06:19:09;37.05;;;17.08;;
47455;SDS011;33202;48.512;-2.780;2023-06-01T06:21:37;35.50;;;17.42;;
47455;SDS011;33202;48.512;-2.780;2023-06-01T06:26:29;40.47;;;15.77;;
47455;SDS011;33202;48.512;-2.780;2023-06-01T06:28:55;38.25;;;16.48;;
47455;SDS011;33202;48.512;-2.780;2023-06-01T06:31:21;38.40;;;17.02;;
47455;SDS011;33202;48.512;-2.780;2023-06-01T06:33:47;35.03;;;17.02;;
47455;SDS011;33202;48.512;-2.780;2023-06-01T06:36:13;40.90;;;17.58;;
47455;SDS011;33202;48.512;-2.780;2023-06-01T06:38:39;32.15;;;16.98;;
47455;SDS011;33202;48.512;-2.780;2023-06-01T06:41:05;38.40;;;17.80;;
47455;SDS011;33202;48.512;-2.780;2023-06-01T06:43:31;41.80;;;18.02;;
47455;SDS011;33202;48.512;-2.780;2023-06-01T06:45:57;37.80;;;18.33;;
47455;SDS011;33202;48.512;-2.780;2023-06-01T06:48:23;32.05;;;16.25;;
47455;SDS011;33202;48.512;-2.780;2023-06-01T06:50:49;36.60;;;18.33;;
47455;SDS011;33202;48.512;-2.780;2023-06-01T06:53:16;40.70;;;17.92;;
47455;SDS011;33202;48.512;-2.780;2023-06-01T06:55:43;34.85;;;17.02;;
47455;SDS011;33202;48.512;-2.780;2023-06-01T06:58:09;35.20;;;17.77;;
47455;SDS011;33202;48.512;-2.780;2023-06-01T07:00:36;38.70;;;18.48;;
47455;SDS011;33202;48.512;-2.780;2023-06-01T07:03:02;37.53;;;18.10;;
47455;SDS011;33202;48.512;-2.780;2023-06-01T07:05:28;37.10;;;18.77;;
47455;SDS011;33202;48.512;-2.780;2023-06-01T07:07:54;39.43;;;19.33;;
47455;SDS011;33202;48.512;-2.780;2023-06-01T07:10:21;39.23;;;19.00;;
47455;SDS011;33202;48.512;-2.780;2023-06-01T07:12:47;43.95;;;18.85;;
47455;SDS011;33202;48.512;-2.780;2023-06-01T07:15:13;38.10;;;18.42;;
47455;SDS011;33202;48.512;-2.780;2023-06-01T07:17:39;38.28;;;18.50;;
47455;SDS011;33202;48.512;-2.780;2023-06-01T07:20:06;36.42;;;17.98;;
47455;SDS011;33202;48.512;-2.780;2023-06-01T07:22:32;40.25;;;18.30;;
47455;SDS011;33202;48.512;-2.780;2023-06-01T07:24:58;37.35;;;18.52;;
47455;SDS011;33202;48.512;-2.780;2023-06-01T07:27:25;36.07;;;17.80;;
47455;SDS011;33202;48.512;-2.780;2023-06-01T07:29:51;38.13;;;17.50;;
47455;SDS011;33202;48.512;-2.780;2023-06-01T07:32:20;40.67;;;18.75;;
47455;SDS011;33202;48.512;-2.780;2023-06-01T07:34:46;33.10;;;16.90;;
47455;SDS011;33202;48.512;-2.780;2023-06-01T07:37:12;35.03;;;17.02;;
47455;SDS011;33202;48.512;-2.780;2023-06-01T07:39:39;35.83;;;15.98;;
47455;SDS011;33202;48.512;-2.780;2023-06-01T07:42:05;31.40;;;16.27;;
47455;SDS011;33202;48.512;-2.780;2023-06-01T07:44:31;30.92;;;14.98;;
47455;SDS011;33202;48.512;-2.780;2023-06-01T07:46:57;32.15;;;15.90;;
47455;SDS011;33202;48.512;-2.780;2023-06-01T07:49:23;32.78;;;15.48;;
47455;SDS011;33202;48.512;-2.780;2023-06-01T07:51:49;33.25;;;15.93;;
47455;SDS011;33202;48.512;-2.780;2023-06-01T07:54:17;31.75;;;15.73;;
47455;SDS011;33202;48.512;-2.780;2023-06-01T07:56:43;36.20;;;15.25;;
47455;SDS011;33202;48.512;-2.780;2023-06-01T07:59:09;32.60;;;15.93;;
47455;SDS011;33202;48.512;-2.780;2023-06-01T08:01:35;38.90;;;16.02;;
47455;SDS011;33202;48.512;-2.780;2023-06-01T08:04:02;31.58;;;15.23;;
47455;SDS011;33202;48.512;-2.780;2023-06-01T08:06:28;34.85;;;15.88;;
47455;SDS011;33202;48.512;-2.780;2023-06-01T08:09:01;29.38;;;15.10;;
47455;SDS011;33202;48.512;-2.780;2023-06-01T08:11:28;32.50;;;14.43;;
47455;SDS011;33202;48.512;-2.780;2023-06-01T08:13:54;35.05;;;14.18;;
47455;SDS011;33202;48.512;-2.780;2023-06-01T08:16:20;33.70;;;14.63;;
47455;SDS011;33202;48.512;-2.780;2023-06-01T08:18:46;27.83;;;14.27;;
47455;SDS011;33202;48.512;-2.780;2023-06-01T08:21:12;29.98;;;15.00;;
47455;SDS011;33202;48.512;-2.780;2023-06-01T08:23:38;31.00;;;15.52;;
47455;SDS011;33202;48.512;-2.780;2023-06-01T08:26:05;31.48;;;14.82;;
47455;SDS011;33202;48.512;-2.780;2023-06-01T08:28:31;32.10;;;15.07;;
47455;SDS011;33202;48.512;-2.780;2023-06-01T08:30:57;33.05;;;14.85;;
47455;SDS011;33202;48.512;-2.780;2023-06-01T08:33:23;31.85;;;15.13;;
47455;SDS011;33202;48.512;-2.780;2023-06-01T08:35:49;35.25;;;14.77;;
47455;SDS011;33202;48.512;-2.780;2023-06-01T08:38:16;31.42;;;14.20;;
47455;SDS011;33202;48.512;-2.780;2023-06-01T08:40:42;31.75;;;13.82;;
47455;SDS011;33202;48.512;-2.780;2023-06-01T08:43:12;33.33;;;14.68;;
47455;SDS011;33202;48.512;-2.780;2023-06-01T08:45:40;31.27;;;14.65;;
47455;SDS011;33202;48.512;-2.780;2023-06-01T08:48:07;29.38;;;14.93;;
47455;SDS011;33202;48.512;-2.780;2023-06-01T08:50:33;35.47;;;15.38;;
47455;SDS011;33202;48.512;-2.780;2023-06-01T08:53:00;33.65;;;14.77;;
47455;SDS011;33202;48.512;-2.780;2023-06-01T08:55:27;28.98;;;14.02;;
47455;SDS011;33202;48.512;-2.780;2023-06-01T08:57:53;31.77;;;14.52;;
47455;SDS011;33202;48.512;-2.780;2023-06-01T09:00:21;32.90;;;15.17;;
47455;SDS011;33202;48.512;-2.780;2023-06-01T09:02:48;33.42;;;15.10;;
47455;SDS011;33202;48.512;-2.780;2023-06-01T09:05:14;29.02;;;14.93;;
47455;SDS011;33202;48.512;-2.780;2023-06-01T09:07:42;30.83;;;15.55;;
47455;SDS011;33202;48.512;-2.780;2023-06-01T09:10:08;33.47;;;15.23;;
47455;SDS011;33202;48.512;-2.780;2023-06-01T09:12:34;26.23;;;12.82;;
47455;SDS011;33202;48.512;-2.780;2023-06-01T09:17:30;34.92;;;15.45;;
47455;SDS011;33202;48.512;-2.780;2023-06-01T09:19:56;35.67;;;15.18;;
47455;SDS011;33202;48.512;-2.780;2023-06-01T09:22:22;36.72;;;15.30;;
47455;SDS011;33202;48.512;-2.780;2023-06-01T09:24:55;35.10;;;14.70;;
47455;SDS011;33202;48.512;-2.780;2023-06-01T09:27:21;29.15;;;14.00;;
47455;SDS011;33202;48.512;-2.780;2023-06-01T09:29:54;32.92;;;14.15;;
47455;SDS011;33202;48.512;-2.780;2023-06-01T09:32:20;27.13;;;13.40;;
47455;SDS011;33202;48.512;-2.780;2023-06-01T09:34:46;33.72;;;13.95;;
47455;SDS011;33202;48.512;-2.780;2023-06-01T09:37:13;28.85;;;13.20;;
47455;SDS011;33202;48.512;-2.780;2023-06-01T09:39:39;29.42;;;13.68;;
47455;SDS011;33202;48.512;-2.780;2023-06-01T09:42:05;27.60;;;13.82;;
47455;SDS011;33202;48.512;-2.780;2023-06-01T09:44:38;39.13;;;14.40;;
47455;SDS011;33202;48.512;-2.780;2023-06-01T09:47:09;34.08;;;14.35;;
47455;SDS011;33202;48.512;-2.780;2023-06-01T09:54:30;33.00;;;13.70;;
47455;SDS011;33202;48.512;-2.780;2023-06-01T09:56:57;27.70;;;13.32;;
47455;SDS011;33202;48.512;-2.780;2023-06-01T09:59:23;35.20;;;13.60;;
47455;SDS011;33202;48.512;-2.780;2023-06-01T10:01:51;31.88;;;13.70;;
47455;SDS011;33202;48.512;-2.780;2023-06-01T10:04:19;35.88;;;15.40;;
47455;SDS011;33202;48.512;-2.780;2023-06-01T10:06:46;33.00;;;13.57;;
47455;SDS011;33202;48.512;-2.780;2023-06-01T10:09:12;31.33;;;13.68;;
47455;SDS011;33202;48.512;-2.780;2023-06-01T10:11:43;32.42;;;13.80;;
47455;SDS011;33202;48.512;-2.780;2023-06-01T10:14:10;36.40;;;14.80;;
47455;SDS011;33202;48.512;-2.780;2023-06-01T10:16:36;30.58;;;13.15;;
47455;SDS011;33202;48.512;-2.780;2023-06-01T10:19:02;32.60;;;14.82;;
47455;SDS011;33202;48.512;-2.780;2023-06-01T10:21:28;30.42;;;14.40;;
47455;SDS011;33202;48.512;-2.780;2023-06-01T10:23:54;35.40;;;13.77;;
47455;SDS011;33202;48.512;-2.780;2023-06-01T10:26:20;33.35;;;13.45;;
47455;SDS011;33202;48.512;-2.780;2023-06-01T10:28:47;33.72;;;15.35;;
47455;SDS011;33202;48.512;-2.780;2023-06-01T10:33:58;34.40;;;14.60;;
47455;SDS011;33202;48.512;-2.780;2023-06-01T10:36:31;37.47;;;13.55;;
47455;SDS011;33202;48.512;-2.780;2023-06-01T10:39:23;31.33;;;13.90;;
47455;SDS011;33202;48.512;-2.780;2023-06-01T10:41:49;33.45;;;14.13;;
47455;SDS011;33202;48.512;-2.780;2023-06-01T10:47:00;29.85;;;13.18;;
47455;SDS011;33202;48.512;-2.780;2023-06-01T10:50:02;31.02;;;13.75;;
47455;SDS011;33202;48.512;-2.780;2023-06-01T10:52:28;34.38;;;13.73;;
47455;SDS011;33202;48.512;-2.780;2023-06-01T10:54:57;32.47;;;14.30;;
47455;SDS011;33202;48.512;-2.780;2023-06-01T10:57:42;29.05;;;13.80;;
47455;SDS011;33202;48.512;-2.780;2023-06-01T11:02:41;32.60;;;13.15;;
47455;SDS011;33202;48.512;-2.780;2023-06-01T11:07:52;27.73;;;13.45;;
47455;SDS011;33202;48.512;-2.780;2023-06-01T11:13:12;33.97;;;13.52;;
47455;SDS011;33202;48.512;-2.780;2023-06-01T11:21:08;27.55;;;13.18;;
47455;SDS011;33202;48.512;-2.780;2023-06-01T11:23:35;34.90;;;14.15;;
47455;SDS011;33202;48.512;-2.780;2023-06-01T11:26:01;30.13;;;13.43;;
47455;SDS011;33202;48.512;-2.780;2023-06-01T11:28:31;31.65;;;12.80;;
47455;SDS011;33202;48.512;-2.780;2023-06-01T11:30:57;35.90;;;13.70;;
47455;SDS011;33202;48.512;-2.780;2023-06-01T11:33:25;33.47;;;13.35;;
47455;SDS011;33202;48.512;-2.780;2023-06-01T11:35:59;29.95;;;12.55;;
47455;SDS011;33202;48.512;-2.780;2023-06-01T11:38:37;33.28;;;13.82;;
47455;SDS011;33202;48.512;-2.780;2023-06-01T11:41:03;32.90;;;12.90;;
47455;SDS011;33202;48.512;-2.780;2023-06-01T11:43:30;34.97;;;14.20;;
47455;SDS011;33202;48.512;-2.780;2023-06-01T11:46:00;28.30;;;12.98;;
47455;SDS011;33202;48.512;-2.780;2023-06-01T11:48:26;26.42;;;13.18;;
47455;SDS011;33202;48.512;-2.780;2023-06-01T11:50:52;28.00;;;12.63;;
47455;SDS011;33202;48.512;-2.780;2023-06-01T11:53:19;28.13;;;12.80;;
47455;SDS011;33202;48.512;-2.780;2023-06-01T11:55:53;33.10;;;14.38;;
47455;SDS011;33202;48.512;-2.780;2023-06-01T11:58:28;31.92;;;13.23;;
47455;SDS011;33202;48.512;-2.780;2023-06-01T12:00:56;32.78;;;13.00;;
47455;SDS011;33202;48.512;-2.780;2023-06-01T12:03:22;26.45;;;12.68;;
47455;SDS011;33202;48.512;-2.780;2023-06-01T12:05:52;36.13;;;13.15;;
47455;SDS011;33202;48.512;-2.780;2023-06-01T12:08:21;38.55;;;13.35;;
47455;SDS011;33202;48.512;-2.780;2023-06-01T12:10:48;24.73;;;11.77;;
47455;SDS011;33202;48.512;-2.780;2023-06-01T12:13:18;28.83;;;11.95;;
47455;SDS011;33202;48.512;-2.780;2023-06-01T12:15:45;29.15;;;12.60;;
47455;SDS011;33202;48.512;-2.780;2023-06-01T12:18:11;32.10;;;12.73;;
47455;SDS011;33202;48.512;-2.780;2023-06-01T12:20:41;31.08;;;12.25;;
47455;SDS011;33202;48.512;-2.780;2023-06-01T12:23:17;26.45;;;11.77;;
47455;SDS011;33202;48.512;-2.780;2023-06-01T12:25:57;26.93;;;12.20;;
47455;SDS011;33202;48.512;-2.780;2023-06-01T12:28:24;32.47;;;12.35;;
47455;SDS011;33202;48.512;-2.780;2023-06-01T12:31:13;27.85;;;11.48;;
47455;SDS011;33202;48.512;-2.780;2023-06-01T12:33:40;30.70;;;11.88;;
47455;SDS011;33202;48.512;-2.780;2023-06-01T12:36:07;28.37;;;12.37;;
47455;SDS011;33202;48.512;-2.780;2023-06-01T12:38:55;25.55;;;11.35;;
47455;SDS011;33202;48.512;-2.780;2023-06-01T12:41:22;35.20;;;11.57;;
47455;SDS011;33202;48.512;-2.780;2023-06-01T12:43:48;32.43;;;12.73;;
47455;SDS011;33202;48.512;-2.780;2023-06-01T12:46:18;29.10;;;11.95;;
47455;SDS011;33202;48.512;-2.780;2023-06-01T12:48:44;30.23;;;11.73;;
47455;SDS011;33202;48.512;-2.780;2023-06-01T12:51:12;36.38;;;13.00;;
47455;SDS011;33202;48.512;-2.780;2023-06-01T12:53:39;31.55;;;12.52;;
47455;SDS011;33202;48.512;-2.780;2023-06-01T12:56:05;34.13;;;12.20;;
47455;SDS011;33202;48.512;-2.780;2023-06-01T12:58:34;31.50;;;12.50;;
47455;SDS011;33202;48.512;-2.780;2023-06-01T13:01:01;24.30;;;11.20;;
47455;SDS011;33202;48.512;-2.780;2023-06-01T13:03:27;33.15;;;12.68;;
47455;SDS011;33202;48.512;-2.780;2023-06-01T13:05:54;27.23;;;10.48;;
47455;SDS011;33202;48.512;-2.780;2023-06-01T13:08:20;30.10;;;11.27;;
47455;SDS011;33202;48.512;-2.780;2023-06-01T13:10:47;27.85;;;11.73;;
47455;SDS011;33202;48.512;-2.780;2023-06-01T13:13:13;28.63;;;10.80;;
47455;SDS011;33202;48.512;-2.780;2023-06-01T13:15:40;33.63;;;11.90;;
47455;SDS011;33202;48.512;-2.780;2023-06-01T13:18:06;29.13;;;11.73;;
47455;SDS011;33202;48.512;-2.780;2023-06-01T13:20:33;32.13;;;12.38;;
47455;SDS011;33202;48.512;-2.780;2023-06-01T13:22:59;28.58;;;11.73;;
47455;SDS011;33202;48.512;-2.780;2023-06-01T13:25:25;26.97;;;11.07;;
47455;SDS011;33202;48.512;-2.780;2023-06-01T13:27:51;27.83;;;11.98;;
47455;SDS011;33202;48.512;-2.780;2023-06-01T13:30:18;29.65;;;12.10;;
47455;SDS011;33202;48.512;-2.780;2023-06-01T13:32:44;34.38;;;12.95;;
47455;SDS011;33202;48.512;-2.780;2023-06-01T13:35:10;26.40;;;11.83;;
47455;SDS011;33202;48.512;-2.780;2023-06-01T13:37:37;34.55;;;13.40;;
47455;SDS011;33202;48.512;-2.780;2023-06-01T13:40:04;30.52;;;12.80;;
47455;SDS011;33202;48.512;-2.780;2023-06-01T13:42:30;29.75;;;13.23;;
47455;SDS011;33202;48.512;-2.780;2023-06-01T13:44:57;29.10;;;11.98;;
47455;SDS011;33202;48.512;-2.780;2023-06-01T13:47:23;28.55;;;12.60;;
47455;SDS011;33202;48.512;-2.780;2023-06-01T13:49:50;35.10;;;13.50;;
47455;SDS011;33202;48.512;-2.780;2023-06-01T13:52:16;32.60;;;12.87;;
47455;SDS011;33202;48.512;-2.780;2023-06-01T13:54:42;31.27;;;12.07;;
47455;SDS011;33202;48.512;-2.780;2023-06-01T13:57:08;28.80;;;11.90;;
47455;SDS011;33202;48.512;-2.780;2023-06-01T13:59:34;39.07;;;12.40;;
47455;SDS011;33202;48.512;-2.780;2023-06-01T14:02:04;25.98;;;11.32;;
47455;SDS011;33202;48.512;-2.780;2023-06-01T14:04:30;29.80;;;11.85;;
47455;SDS011;33202;48.512;-2.780;2023-06-01T14:06:56;32.00;;;12.60;;
47455;SDS011;33202;48.512;-2.780;2023-06-01T14:09:22;30.75;;;12.85;;
47455;SDS011;33202;48.512;-2.780;2023-06-01T14:11:49;28.27;;;11.60;;
47455;SDS011;33202;48.512;-2.780;2023-06-01T14:14:15;27.83;;;12.17;;
47455;SDS011;33202;48.512;-2.780;2023-06-01T14:16:41;29.73;;;12.27;;
47455;SDS011;33202;48.512;-2.780;2023-06-01T14:19:07;30.50;;;11.45;;
47455;SDS011;33202;48.512;-2.780;2023-06-01T14:21:33;28.25;;;11.73;;
47455;SDS011;33202;48.512;-2.780;2023-06-01T14:26:27;25.70;;;11.65;;
47455;SDS011;33202;48.512;-2.780;2023-06-01T14:28:53;23.83;;;11.53;;
47455;SDS011;33202;48.512;-2.780;2023-06-01T14:31:19;30.55;;;11.82;;
47455;SDS011;33202;48.512;-2.780;2023-06-01T14:33:46;30.27;;;11.75;;
47455;SDS011;33202;48.512;-2.780;2023-06-01T14:36:12;31.65;;;11.65;;
47455;SDS011;33202;48.512;-2.780;2023-06-01T14:38:38;28.73;;;10.88;;
47455;SDS011;33202;48.512;-2.780;2023-06-01T14:41:04;24.80;;;10.60;;
47455;SDS011;33202;48.512;-2.780;2023-06-01T14:43:30;22.88;;;11.45;;
47455;SDS011;33202;48.512;-2.780;2023-06-01T14:45:56;34.75;;;11.55;;
47455;SDS011;33202;48.512;-2.780;2023-06-01T14:48:22;25.20;;;10.75;;
47455;SDS011;33202;48.512;-2.780;2023-06-01T14:50:49;28.92;;;11.73;;
47455;SDS011;33202;48.512;-2.780;2023-06-01T14:53:15;29.23;;;11.77;;
47455;SDS011;33202;48.512;-2.780;2023-06-01T14:55:41;33.10;;;12.48;;
47455;SDS011;33202;48.512;-2.780;2023-06-01T14:58:07;25.02;;;10.80;;